< < Back
Terminal Aerodrome Forecast


Current Version              Previous Versions:   1  2  3  4  5  6  7  8  9  

Terminal Aerodrome Forecast

021
FTUS44 KMRX 252337
TAFTYS
TAF
KTYS 252337Z 2600/2624 23004KT P6SM SCT040
     FM260900 VRB02KT 6SM BR SKC
     FM261300 VRB03KT P6SM SKC
     FM261700 28005KT P6SM SKC=



Latest METAR

510
SAUS80 KWBC 260500 RRC
MTRTYS
METAR KTYS 260453Z 00000KT 10SM CLR 14/10 A3001 RMK AO2 SLP157 T01390100
402110039


USA.gov is the U.S. government's official web portal to all federal, state and local government web resources and services.